createdAt,value
2023-01-25T00:02:15.838Z,32.90
2023-01-25T00:04:44.629Z,34.97
2023-01-25T00:07:13.636Z,31.93
2023-01-25T00:09:42.707Z,33.60
2023-01-25T00:12:11.648Z,33.73
2023-01-25T00:14:40.353Z,35.27
2023-01-25T00:17:09.344Z,32.83
2023-01-25T00:19:40.114Z,33.53
2023-01-25T00:22:09.142Z,32.00
2023-01-25T00:24:38.211Z,33.57
2023-01-25T00:27:07.211Z,31.40
2023-01-25T00:29:36.263Z,31.20
2023-01-25T00:32:30.402Z,31.57
2023-01-25T00:35:01.343Z,31.53
2023-01-25T00:37:39.139Z,30.63
2023-01-25T00:40:10.641Z,31.23
2023-01-25T00:42:40.704Z,32.30
2023-01-25T00:45:11.829Z,32.50
2023-01-25T00:47:40.981Z,30.70
2023-01-25T00:50:12.990Z,30.93
2023-01-25T00:52:42.356Z,32.73
2023-01-25T00:55:11.379Z,32.73
2023-01-25T00:57:40.481Z,32.17
2023-01-25T01:00:10.870Z,31.30
2023-01-25T01:02:40.363Z,31.97
2023-01-25T01:05:12.004Z,32.93
2023-01-25T01:07:41.065Z,31.87
2023-01-25T01:10:10.739Z,31.90
2023-01-25T01:12:39.848Z,33.80
2023-01-25T01:15:10.773Z,31.40
2023-01-25T01:17:39.788Z,31.83
2023-01-25T01:20:12.514Z,32.53
2023-01-25T01:22:41.419Z,33.37
2023-01-25T01:25:11.224Z,34.40
2023-01-25T01:27:40.161Z,32.37
2023-01-25T01:30:10.478Z,32.57
2023-01-25T01:32:40.441Z,33.43
2023-01-25T01:35:11.640Z,33.63
2023-01-25T01:37:43.836Z,33.03
2023-01-25T01:40:16.248Z,32.90
2023-01-25T01:43:01.987Z,32.27
2023-01-25T01:45:55.399Z,32.67
2023-01-25T01:48:35.916Z,34.53
2023-01-25T01:51:12.219Z,34.70
2023-01-25T01:53:44.980Z,34.00
2023-01-25T01:56:20.507Z,33.97
2023-01-25T01:58:53.817Z,34.90
2023-01-25T02:01:22.940Z,34.47
2023-01-25T02:03:52.920Z,34.97
2023-01-25T02:06:31.231Z,33.47
2023-01-25T02:09:01.695Z,34.27
2023-01-25T02:11:31.919Z,35.03
2023-01-25T02:14:01.993Z,35.73
2023-01-25T02:16:31.085Z,34.50
2023-01-25T02:19:03.747Z,36.37
2023-01-25T02:21:41.092Z,34.13
2023-01-25T02:24:18.509Z,35.87
2023-01-25T02:26:49.263Z,34.97
2023-01-25T02:29:20.340Z,34.73
2023-01-25T02:31:52.679Z,36.17
2023-01-25T02:34:21.859Z,37.23
2023-01-25T02:36:50.835Z,37.67
2023-01-25T02:39:20.891Z,36.50
2023-01-25T02:41:53.748Z,37.47
2023-01-25T02:44:26.356Z,37.83
2023-01-25T02:46:55.547Z,35.90
2023-01-25T02:49:25.109Z,36.47
2023-01-25T02:51:57.570Z,36.93
2023-01-25T02:54:27.718Z,36.50
2023-01-25T02:56:59.729Z,37.00
2023-01-25T02:59:33.072Z,37.80
2023-01-25T03:02:02.705Z,38.27
2023-01-25T03:04:32.986Z,37.17
2023-01-25T03:07:02.148Z,37.80
2023-01-25T03:09:31.127Z,39.70
2023-01-25T03:12:02.497Z,37.90
2023-01-25T03:14:32.354Z,39.90
2023-01-25T03:17:01.696Z,40.33
2023-01-25T03:19:30.807Z,39.10
2023-01-25T03:22:00.204Z,40.90
2023-01-25T03:24:30.063Z,37.87
2023-01-25T03:27:14.701Z,41.60
2023-01-25T03:29:48.945Z,39.30
2023-01-25T03:32:22.896Z,39.20
2023-01-25T03:34:52.327Z,40.33
2023-01-25T03:37:22.210Z,41.30
2023-01-25T03:39:51.859Z,40.60
2023-01-25T03:42:22.113Z,39.73
2023-01-25T03:44:57.726Z,40.77
2023-01-25T03:47:26.848Z,41.57
2023-01-25T03:49:56.319Z,39.80
2023-01-25T03:52:26.864Z,41.23
2023-01-25T03:55:19.622Z,40.17
2023-01-25T03:57:50.161Z,41.20
2023-01-25T04:00:22.405Z,41.37
2023-01-25T04:03:00.210Z,41.43
2023-01-25T04:05:30.403Z,41.73
2023-01-25T04:07:59.828Z,40.93
2023-01-25T04:10:38.140Z,41.07
2023-01-25T04:16:03.512Z,42.73
2023-01-25T04:18:50.806Z,42.90
2023-01-25T04:21:19.979Z,43.93
2023-01-25T04:23:49.366Z,43.47
2023-01-25T04:26:19.343Z,43.33
2023-01-25T04:28:56.114Z,43.20
2023-01-25T04:31:26.953Z,45.40
2023-01-25T04:33:56.941Z,45.50
2023-01-25T04:36:25.961Z,45.53
2023-01-25T04:38:54.949Z,42.90
2023-01-25T04:41:26.951Z,43.63
2023-01-25T04:43:56.799Z,43.47
2023-01-25T04:46:28.466Z,42.33
2023-01-25T04:48:57.625Z,44.40
2023-01-25T04:51:26.635Z,45.53
2023-01-25T04:53:55.719Z,44.97
2023-01-25T04:56:25.452Z,46.87
2023-01-25T04:58:57.220Z,43.93
2023-01-25T05:01:27.985Z,42.47
2023-01-25T05:03:57.059Z,43.17
2023-01-25T05:06:40.408Z,40.80
2023-01-25T05:09:10.325Z,39.33
2023-01-25T05:11:39.486Z,39.07
2023-01-25T05:14:22.672Z,37.37
2023-01-25T05:16:54.402Z,36.50
2023-01-25T05:19:24.007Z,33.50
2023-01-25T05:22:01.626Z,32.43
2023-01-25T05:24:41.667Z,32.63
2023-01-25T05:27:12.282Z,33.57
2023-01-25T05:30:01.225Z,32.60
2023-01-25T05:32:44.410Z,30.87
2023-01-25T05:35:13.488Z,29.60
2023-01-25T05:37:42.412Z,30.43
2023-01-25T05:40:17.932Z,29.90
2023-01-25T05:42:47.328Z,21.87
2023-01-25T05:45:19.500Z,26.77
2023-01-25T05:47:53.918Z,28.07
2023-01-25T05:50:24.687Z,28.63
2023-01-25T05:53:02.531Z,25.70
2023-01-25T05:55:32.378Z,25.13
2023-01-25T05:58:06.438Z,25.63
2023-01-25T06:00:35.519Z,27.77
2023-01-25T06:03:07.809Z,28.47
2023-01-25T06:05:38.924Z,28.57
2023-01-25T06:08:07.781Z,28.67
2023-01-25T06:10:45.119Z,29.07
2023-01-25T06:13:14.659Z,27.60
2023-01-25T06:15:45.094Z,28.53
2023-01-25T06:18:35.902Z,26.33
2023-01-25T06:21:28.214Z,24.67
2023-01-25T06:23:57.388Z,26.80
2023-01-25T06:26:26.553Z,26.73
2023-01-25T06:28:55.427Z,22.87
2023-01-25T06:31:24.668Z,20.47
2023-01-25T06:33:55.352Z,21.00
2023-01-25T06:36:25.338Z,18.70
2023-01-25T06:38:54.538Z,19.27
2023-01-25T06:41:23.733Z,19.10
2023-01-25T06:43:53.300Z,18.50
2023-01-25T06:46:22.132Z,14.67
2023-01-25T06:48:51.189Z,11.47
2023-01-25T06:51:21.670Z,11.90
2023-01-25T06:53:50.748Z,11.20
2023-01-25T06:56:21.951Z,11.07
2023-01-25T06:58:51.878Z,8.00
2023-01-25T07:01:27.006Z,6.63
2023-01-25T07:03:57.801Z,6.57
2023-01-25T07:06:33.767Z,8.10
2023-01-25T07:09:08.246Z,7.80
2023-01-25T07:11:37.571Z,9.60
2023-01-25T07:14:07.147Z,10.60
2023-01-25T07:16:38.651Z,10.63
2023-01-25T07:19:09.100Z,11.03
2023-01-25T07:21:39.424Z,11.83
2023-01-25T07:24:08.909Z,12.33
2023-01-25T07:26:37.653Z,10.43
2023-01-25T07:29:06.677Z,9.33
2023-01-25T07:31:35.825Z,9.73
2023-01-25T07:34:04.735Z,10.13
2023-01-25T07:36:33.752Z,11.47
2023-01-25T07:39:04.561Z,10.27
2023-01-25T07:41:33.917Z,10.63
2023-01-25T07:44:03.627Z,11.53
2023-01-25T07:46:39.721Z,9.77
2023-01-25T07:49:08.746Z,9.73
2023-01-25T07:51:37.886Z,11.40
2023-01-25T07:54:08.758Z,10.20
2023-01-25T07:56:40.603Z,10.13
2023-01-25T07:59:11.251Z,10.53
2023-01-25T08:01:41.204Z,9.07
2023-01-25T08:04:10.525Z,9.43
2023-01-25T08:06:40.211Z,9.10
2023-01-25T08:09:14.585Z,10.70
2023-01-25T08:11:44.040Z,10.10
2023-01-25T08:14:13.285Z,9.50
2023-01-25T08:16:42.399Z,10.70
2023-01-25T08:19:12.340Z,11.03
2023-01-25T08:21:41.331Z,11.60
2023-01-25T08:24:13.048Z,9.20
2023-01-25T08:26:43.624Z,9.53
2023-01-25T08:29:13.876Z,8.97
2023-01-25T08:31:45.312Z,10.03
2023-01-25T08:34:15.345Z,8.67
2023-01-25T08:36:44.329Z,9.93
2023-01-25T08:39:15.108Z,10.27
2023-01-25T08:41:45.619Z,12.33
2023-01-25T08:44:14.586Z,11.47
2023-01-25T08:46:43.709Z,10.07
2023-01-25T08:49:12.647Z,9.63
2023-01-25T08:51:41.728Z,10.30
2023-01-25T08:54:14.612Z,10.07
2023-01-25T08:56:44.440Z,10.67
2023-01-25T08:59:14.455Z,9.80
2023-01-25T09:01:43.425Z,12.17
2023-01-25T09:04:12.454Z,9.60
2023-01-25T09:06:41.440Z,10.87
2023-01-25T09:09:10.488Z,10.93
2023-01-25T09:11:41.179Z,9.77
2023-01-25T09:14:10.337Z,10.47
2023-01-25T09:16:39.301Z,10.20
2023-01-25T09:19:08.392Z,9.83
2023-01-25T09:21:37.393Z,9.97
2023-01-25T09:24:08.264Z,10.17
2023-01-25T09:26:39.996Z,10.93
2023-01-25T09:29:11.569Z,9.53
2023-01-25T09:31:43.919Z,10.97
2023-01-25T09:34:25.662Z,8.57
2023-01-25T09:36:54.739Z,8.97
2023-01-25T09:39:23.533Z,8.90
2023-01-25T09:42:14.662Z,8.70
2023-01-25T09:45:23.546Z,10.43
2023-01-25T09:47:59.325Z,9.97
2023-01-25T09:50:34.873Z,9.60
2023-01-25T09:53:27.594Z,10.10
2023-01-25T09:56:00.212Z,9.53
2023-01-25T09:58:34.360Z,10.40
2023-01-25T10:01:19.616Z,10.33
2023-01-25T10:03:56.964Z,10.67
2023-01-25T10:06:35.816Z,11.93
2023-01-25T10:09:14.412Z,12.43
2023-01-25T10:11:45.367Z,12.47
2023-01-25T10:14:16.915Z,13.40
2023-01-25T10:16:58.007Z,11.40
2023-01-25T10:19:36.118Z,11.30
2023-01-25T10:22:13.051Z,11.27
2023-01-25T10:25:07.646Z,11.83
2023-01-25T10:27:44.501Z,11.93
2023-01-25T10:30:27.869Z,12.17
2023-01-25T10:33:01.803Z,10.47
2023-01-25T10:35:38.906Z,12.73
2023-01-25T10:38:16.492Z,12.50
2023-01-25T10:40:52.297Z,10.77
2023-01-25T10:43:23.421Z,11.43
2023-01-25T10:45:53.135Z,12.77
2023-01-25T10:48:26.711Z,12.63
2023-01-25T10:50:58.786Z,12.53
2023-01-25T10:53:30.308Z,11.07
2023-01-25T10:56:19.372Z,11.73
2023-01-25T10:58:50.153Z,11.07
2023-01-25T11:01:33.254Z,11.90
2023-01-25T11:04:04.520Z,12.60
2023-01-25T11:06:36.407Z,11.90
2023-01-25T11:09:32.688Z,12.70
2023-01-25T11:12:03.106Z,12.03
2023-01-25T11:14:33.944Z,11.93
2023-01-25T11:17:05.072Z,11.63
2023-01-25T11:19:38.951Z,11.10
2023-01-25T11:22:24.071Z,12.57
2023-01-25T11:24:53.390Z,11.90
2023-01-25T11:27:24.119Z,13.70
2023-01-25T11:30:09.775Z,13.13
2023-01-25T11:32:40.783Z,12.97
2023-01-25T11:35:17.927Z,12.47
2023-01-25T11:38:09.308Z,13.60
2023-01-25T11:40:42.869Z,13.00
2023-01-25T11:43:25.722Z,13.20
2023-01-25T11:46:20.980Z,11.90
2023-01-25T11:49:15.893Z,11.53
2023-01-25T11:51:55.803Z,12.87
2023-01-25T11:54:53.665Z,12.33
2023-01-25T11:57:46.641Z,12.33
2023-01-25T12:00:36.199Z,13.27
2023-01-25T12:03:37.937Z,12.60
2023-01-25T12:06:16.099Z,18.63
2023-01-25T12:09:21.043Z,16.10
2023-01-25T12:12:02.908Z,27.27
2023-01-25T12:14:47.053Z,22.50
2023-01-25T12:17:26.309Z,29.13
2023-01-25T12:20:11.335Z,38.33
2023-01-25T12:22:55.688Z,34.37
2023-01-25T12:25:31.383Z,24.50
2023-01-25T12:28:13.970Z,15.07
2023-01-25T12:30:51.863Z,14.83
2023-01-25T12:33:25.161Z,14.23
2023-01-25T12:36:00.613Z,13.47
2023-01-25T12:38:36.584Z,13.30
2023-01-25T12:41:15.759Z,13.17
2023-01-25T12:43:49.866Z,15.27
2023-01-25T12:46:28.516Z,14.60
2023-01-25T12:49:00.921Z,13.30
2023-01-25T12:51:35.893Z,13.70
2023-01-25T12:54:11.931Z,13.80
2023-01-25T12:56:48.211Z,13.90
2023-01-25T12:59:24.733Z,13.60
2023-01-25T13:01:57.094Z,14.93
2023-01-25T13:04:46.311Z,13.80
2023-01-25T13:07:21.994Z,14.93
2023-01-25T13:09:59.310Z,14.77
2023-01-25T13:12:29.884Z,14.20
2023-01-25T13:14:59.018Z,14.93
2023-01-25T13:17:35.519Z,14.47
2023-01-25T13:20:44.296Z,16.30
2023-01-25T13:23:31.784Z,14.87
2023-01-25T13:26:37.611Z,15.03
2023-01-25T13:29:47.245Z,14.97
2023-01-25T13:32:37.497Z,14.27
2023-01-25T13:35:28.358Z,15.87
2023-01-25T13:38:04.176Z,15.93
2023-01-25T13:40:35.461Z,16.10
2023-01-25T13:43:06.812Z,16.33
2023-01-25T13:45:39.392Z,16.70
2023-01-25T13:48:16.742Z,15.70
2023-01-25T13:50:52.294Z,16.10
2023-01-25T13:53:22.983Z,16.20
2023-01-25T13:55:53.793Z,15.87
2023-01-25T13:58:25.400Z,16.33
2023-01-25T14:00:57.510Z,16.00
2023-01-25T14:03:30.015Z,15.57
2023-01-25T14:06:02.733Z,16.37
2023-01-25T14:08:32.752Z,15.80
2023-01-25T14:11:02.072Z,16.50
2023-01-25T14:13:31.231Z,15.70
2023-01-25T14:16:04.405Z,16.17
2023-01-25T14:18:35.519Z,16.77
2023-01-25T14:21:18.536Z,16.87
2023-01-25T14:23:48.743Z,15.87
2023-01-25T14:26:23.887Z,18.70
2023-01-25T14:29:01.714Z,18.73
2023-01-25T14:31:34.797Z,24.03
2023-01-25T14:34:06.219Z,16.90
2023-01-25T14:36:36.957Z,20.23
2023-01-25T14:39:21.816Z,18.37
2023-01-25T14:42:00.907Z,18.13
2023-01-25T14:44:31.771Z,18.23
2023-01-25T14:47:24.027Z,17.50
2023-01-25T14:49:52.969Z,17.83
2023-01-25T14:52:28.385Z,18.53
2023-01-25T14:54:59.939Z,20.53
2023-01-25T14:57:36.265Z,21.83
2023-01-25T15:00:09.677Z,27.93
2023-01-25T15:02:41.887Z,22.57
2023-01-25T15:05:20.258Z,23.83
2023-01-25T15:07:52.492Z,21.10
2023-01-25T15:10:24.720Z,21.70
2023-01-25T15:13:13.992Z,20.83
2023-01-25T15:15:56.613Z,21.30
2023-01-25T15:18:45.724Z,21.53
2023-01-25T15:21:16.525Z,19.60
2023-01-25T15:23:51.252Z,22.23
2023-01-25T15:26:22.388Z,22.47
2023-01-25T15:28:52.928Z,24.20
2023-01-25T15:31:25.666Z,23.07
2023-01-25T15:33:57.705Z,23.60
2023-01-25T15:36:26.877Z,21.57
2023-01-25T15:38:57.559Z,22.40
2023-01-25T15:41:26.780Z,20.57
2023-01-25T15:43:55.909Z,21.00
2023-01-25T15:46:27.751Z,20.37
2023-01-25T15:48:57.001Z,21.50
2023-01-25T15:51:25.995Z,22.43
2023-01-25T15:53:56.762Z,21.83
2023-01-25T15:56:28.875Z,22.33
2023-01-25T15:59:00.529Z,21.03
2023-01-25T16:01:32.183Z,22.90
2023-01-25T16:04:02.027Z,22.67
2023-01-25T16:06:40.059Z,22.83
2023-01-25T16:09:18.577Z,22.37
2023-01-25T16:11:48.419Z,21.23
2023-01-25T16:14:17.479Z,21.37
2023-01-25T16:16:49.145Z,21.93
2023-01-25T16:19:20.142Z,20.10
2023-01-25T16:21:49.493Z,20.63
2023-01-25T16:24:20.374Z,20.60
2023-01-25T16:26:53.467Z,23.10
2023-01-25T16:29:23.151Z,21.53
2023-01-25T16:31:52.638Z,21.10
2023-01-25T16:34:22.173Z,22.37
2023-01-25T16:36:53.063Z,22.10
2023-01-25T16:39:25.515Z,20.47
2023-01-25T16:41:55.135Z,24.53
2023-01-25T16:44:24.012Z,25.03
2023-01-25T16:46:53.025Z,24.13
2023-01-25T16:49:24.569Z,25.60
2023-01-25T16:51:53.994Z,27.37
2023-01-25T16:54:24.834Z,29.30
2023-01-25T16:56:55.710Z,27.90
2023-01-25T16:59:26.115Z,26.70
2023-01-25T17:01:55.097Z,27.80
2023-01-25T17:04:24.188Z,29.03
2023-01-25T17:06:53.451Z,28.90
2023-01-25T17:09:25.652Z,24.27
2023-01-25T17:11:55.535Z,23.30
2023-01-25T17:14:25.095Z,22.73
2023-01-25T17:16:54.456Z,22.63
2023-01-25T17:19:23.768Z,22.43
2023-01-25T17:21:52.990Z,23.90
2023-01-25T17:24:24.459Z,24.20
2023-01-25T17:26:57.802Z,22.97
2023-01-25T17:29:26.879Z,23.63
2023-01-25T17:31:55.933Z,24.00
2023-01-25T17:34:25.250Z,24.93
2023-01-25T17:36:54.468Z,24.13
2023-01-25T17:39:25.368Z,25.27
2023-01-25T17:41:54.654Z,27.60
2023-01-25T17:44:24.773Z,30.53
2023-01-25T17:46:54.303Z,27.40
2023-01-25T17:49:25.003Z,26.93
2023-01-25T17:51:54.400Z,28.80
2023-01-25T17:54:25.260Z,27.73
2023-01-25T17:56:55.053Z,27.37
2023-01-25T17:59:24.648Z,31.83
2023-01-25T18:01:53.867Z,33.70
2023-01-25T18:04:23.009Z,34.47
2023-01-25T18:06:51.881Z,31.27
2023-01-25T18:09:20.779Z,31.23
2023-01-25T18:11:51.685Z,29.77
2023-01-25T18:14:20.886Z,31.37
2023-01-25T18:16:50.563Z,31.63
2023-01-25T18:19:19.940Z,33.17
2023-01-25T18:21:49.065Z,32.57
2023-01-25T18:24:27.308Z,38.10
2023-01-25T18:27:02.072Z,40.57
2023-01-25T18:29:46.184Z,46.60
2023-01-25T18:32:16.092Z,121.33
2023-01-25T18:34:48.217Z,73.67
2023-01-25T18:37:21.161Z,39.30
2023-01-25T18:39:51.527Z,29.13
2023-01-25T18:42:24.367Z,30.43
2023-01-25T18:44:53.914Z,29.83
2023-01-25T18:47:24.857Z,29.97
2023-01-25T18:49:54.765Z,32.10
2023-01-25T18:52:24.891Z,38.00
2023-01-25T18:54:54.531Z,33.70
2023-01-25T18:57:25.557Z,49.77
2023-01-25T18:59:55.567Z,49.93
2023-01-25T19:02:24.912Z,34.60
2023-01-25T19:04:54.354Z,28.20
2023-01-25T19:07:24.207Z,27.77
2023-01-25T19:09:53.782Z,27.00
2023-01-25T19:12:25.160Z,26.93
2023-01-25T19:14:54.988Z,26.30
2023-01-25T19:17:24.744Z,27.83
2023-01-25T19:19:54.336Z,26.57
2023-01-25T19:22:25.699Z,27.43
2023-01-25T19:24:55.668Z,30.33
2023-01-25T19:27:29.457Z,31.03
2023-01-25T19:29:59.291Z,29.40
2023-01-25T19:32:29.175Z,28.90
2023-01-25T19:34:58.912Z,29.43
2023-01-25T19:37:29.173Z,33.27
2023-01-25T19:39:59.259Z,38.43
2023-01-25T19:42:30.792Z,33.13
2023-01-25T19:45:03.068Z,34.00
2023-01-25T19:47:33.929Z,33.67
2023-01-25T19:50:05.092Z,33.20
2023-01-25T19:52:36.200Z,33.07
2023-01-25T19:55:07.080Z,35.07
2023-01-25T19:57:39.663Z,33.57
2023-01-25T20:00:11.698Z,30.57
2023-01-25T20:02:41.994Z,30.10
2023-01-25T20:05:12.589Z,29.53
2023-01-25T20:07:42.614Z,30.60
2023-01-25T20:10:13.761Z,31.10
2023-01-25T20:12:46.580Z,30.67
2023-01-25T20:15:17.302Z,30.73
2023-01-25T20:17:47.520Z,30.13
2023-01-25T20:20:17.947Z,32.13
2023-01-25T20:22:49.572Z,30.37
2023-01-25T20:25:19.573Z,31.40
2023-01-25T20:27:51.946Z,28.57
2023-01-25T20:30:22.820Z,29.63
2023-01-25T20:32:52.970Z,30.13
2023-01-25T20:35:22.672Z,31.47
2023-01-25T20:37:53.483Z,31.83
2023-01-25T20:40:23.672Z,38.40
2023-01-25T20:42:55.458Z,33.83
2023-01-25T20:45:25.538Z,36.80
2023-01-25T20:47:55.703Z,38.23
2023-01-25T20:50:26.191Z,39.77
2023-01-25T20:52:56.091Z,34.83
2023-01-25T20:55:26.460Z,31.97
2023-01-25T20:57:58.187Z,32.47
2023-01-25T21:00:28.065Z,34.77
2023-01-25T21:02:58.612Z,33.57
2023-01-25T21:05:28.931Z,36.90
2023-01-25T21:07:59.181Z,35.87
2023-01-25T21:10:29.060Z,42.33
2023-01-25T21:13:00.028Z,38.53
2023-01-25T21:15:29.035Z,36.57
2023-01-25T21:17:58.412Z,32.40
2023-01-25T21:20:27.758Z,32.67
2023-01-25T21:22:56.859Z,34.30
2023-01-25T21:25:26.412Z,38.83
2023-01-25T21:27:55.144Z,38.43
2023-01-25T21:30:25.762Z,38.43
2023-01-25T21:32:54.979Z,39.87
2023-01-25T21:35:24.032Z,37.97
2023-01-25T21:37:53.500Z,36.93
2023-01-25T21:40:22.379Z,36.90
2023-01-25T21:42:51.473Z,38.60
2023-01-25T21:45:37.531Z,41.07
2023-01-25T21:48:08.489Z,39.23
2023-01-25T21:50:56.071Z,40.77
2023-01-25T21:53:24.980Z,41.03
2023-01-25T21:55:57.395Z,44.07
2023-01-25T21:58:26.104Z,44.67
2023-01-25T22:00:55.110Z,44.43
2023-01-25T22:03:25.875Z,42.57
2023-01-25T22:05:55.925Z,46.80
2023-01-25T22:08:24.860Z,47.40
2023-01-25T22:10:53.767Z,45.17
2023-01-25T22:13:22.804Z,45.20
2023-01-25T22:15:52.172Z,44.07
2023-01-25T22:18:20.990Z,45.57
2023-01-25T22:20:58.265Z,53.77
2023-01-25T22:23:27.259Z,49.67
2023-01-25T22:26:03.661Z,43.87
2023-01-25T22:28:35.340Z,44.23
2023-01-25T22:31:04.633Z,47.80
2023-01-25T22:33:33.463Z,48.47
2023-01-25T22:36:03.827Z,45.23
2023-01-25T22:38:32.888Z,55.53
2023-01-25T22:41:05.924Z,48.53
2023-01-25T22:43:35.180Z,49.13
2023-01-25T22:46:04.759Z,47.10
2023-01-25T22:48:34.538Z,50.20
2023-01-25T22:51:06.930Z,54.57
2023-01-25T22:53:36.224Z,52.73
2023-01-25T22:56:07.418Z,53.67
2023-01-25T22:58:37.536Z,53.67
2023-01-25T23:01:09.811Z,54.30
2023-01-25T23:03:39.054Z,49.37
2023-01-25T23:06:13.299Z,53.77
2023-01-25T23:08:42.346Z,48.77
2023-01-25T23:11:14.343Z,53.57
2023-01-25T23:14:03.325Z,56.43
2023-01-25T23:16:32.737Z,58.27
2023-01-25T23:19:01.176Z,58.50
2023-01-25T23:21:31.833Z,58.33
2023-01-25T23:24:01.977Z,54.13
2023-01-25T23:26:34.269Z,59.97
2023-01-25T23:29:03.252Z,58.83
2023-01-25T23:31:32.702Z,50.70
2023-01-25T23:34:05.375Z,51.43
2023-01-25T23:36:38.872Z,51.83
2023-01-25T23:39:07.968Z,57.63
2023-01-25T23:41:36.992Z,59.63
2023-01-25T23:44:06.095Z,55.03
2023-01-25T23:46:34.948Z,54.00
2023-01-25T23:49:03.978Z,61.40
2023-01-25T23:51:32.985Z,53.10
2023-01-25T23:54:03.434Z,60.57
2023-01-25T23:56:32.537Z,55.17
2023-01-25T23:59:01.492Z,57.23
